createdAt,value
2023-07-23T00:11:49.098Z,48.63
2023-07-23T00:26:50.760Z,53.43
2023-07-23T00:41:52.442Z,48.90
2023-07-23T00:56:54.335Z,47.30
2023-07-23T01:11:57.723Z,53.30
2023-07-23T01:26:59.418Z,42.13
2023-07-23T01:42:01.399Z,47.73
2023-07-23T01:57:04.381Z,42.80
2023-07-23T02:12:06.513Z,48.10
2023-07-23T02:27:08.294Z,41.93
2023-07-23T02:42:10.015Z,42.87
2023-07-23T02:57:11.716Z,47.80
2023-07-23T03:12:13.452Z,46.47
2023-07-23T03:27:15.219Z,54.53
2023-07-23T03:42:16.965Z,52.50
2023-07-23T03:57:18.799Z,52.00
2023-07-23T04:12:20.606Z,53.43
2023-07-23T04:27:22.289Z,52.40
2023-07-23T04:42:23.983Z,53.90
2023-07-23T04:57:25.704Z,54.97
2023-07-23T05:12:28.095Z,54.30
2023-07-23T05:27:30.346Z,60.30
2023-07-23T05:42:32.087Z,67.37
2023-07-23T05:57:33.866Z,65.37
2023-07-23T06:12:35.747Z,66.37
2023-07-23T06:27:37.526Z,60.47
2023-07-23T06:42:39.212Z,64.83
2023-07-23T06:57:40.869Z,59.60
2023-07-23T07:12:42.581Z,64.70
2023-07-23T07:27:44.255Z,62.63
2023-07-23T07:42:45.984Z,64.67
2023-07-23T07:57:48.023Z,66.47
2023-07-23T08:12:49.921Z,68.47
2023-07-23T08:27:54.191Z,68.90
2023-07-23T08:42:55.768Z,68.67
2023-07-23T08:57:57.961Z,69.07
2023-07-23T09:12:59.954Z,64.23
2023-07-23T09:28:01.676Z,71.53
2023-07-23T09:43:03.510Z,71.57
2023-07-23T09:58:07.503Z,67.23
2023-07-23T10:13:09.235Z,65.80
2023-07-23T10:28:21.284Z,67.93
2023-07-23T10:43:23.086Z,70.57
2023-07-23T10:58:25.186Z,74.73
2023-07-23T11:13:33.421Z,74.33
2023-07-23T11:28:35.302Z,77.27
2023-07-23T11:43:39.481Z,77.67
2023-07-23T11:58:42.293Z,71.87
2023-07-23T12:13:52.554Z,73.37
2023-07-23T12:28:54.288Z,70.93
2023-07-23T12:43:55.983Z,72.43
2023-07-23T12:58:57.729Z,77.93
2023-07-23T13:13:59.382Z,75.60
2023-07-23T13:29:01.107Z,76.63
2023-07-23T13:44:03.096Z,71.00
2023-07-23T13:59:04.780Z,75.87
2023-07-23T14:14:09.826Z,71.80
2023-07-23T14:44:13.023Z,69.77
2023-07-23T14:59:14.741Z,65.87
2023-07-23T15:14:16.666Z,64.10
2023-07-23T15:29:20.141Z,63.77
2023-07-23T15:44:21.805Z,64.00
2023-07-23T15:59:23.526Z,64.70
2023-07-23T16:14:25.245Z,67.97
2023-07-23T16:29:27.181Z,64.93
2023-07-23T16:44:30.271Z,64.50
2023-07-23T16:59:32.022Z,63.73
2023-07-23T17:14:33.885Z,63.37
2023-07-23T17:29:35.637Z,64.10
2023-07-23T17:44:37.506Z,59.13
2023-07-23T17:59:39.234Z,55.77
2023-07-23T18:14:40.963Z,62.63
2023-07-23T18:29:43.154Z,53.00
2023-07-23T18:44:44.885Z,52.80
2023-07-23T18:59:46.601Z,53.30
2023-07-23T19:14:48.318Z,52.30
2023-07-23T19:29:50.007Z,48.87
2023-07-23T19:44:51.759Z,54.13
2023-07-23T19:59:53.477Z,49.13
2023-07-23T20:14:55.349Z,44.10
2023-07-23T20:29:58.293Z,49.93
2023-07-23T20:45:00.234Z,49.10
2023-07-23T21:00:03.537Z,43.07
2023-07-23T21:15:06.500Z,40.13
2023-07-23T21:30:08.725Z,42.43
2023-07-23T21:45:10.707Z,41.50
2023-07-23T22:00:12.702Z,42.70
2023-07-23T22:15:14.415Z,41.17
2023-07-23T22:30:29.844Z,43.10
2023-07-23T22:45:33.462Z,35.40
2023-07-23T23:00:35.407Z,38.97
2023-07-23T23:15:37.210Z,40.70
2023-07-23T23:30:38.932Z,41.23
